Time;durP1;ratioP1;P1;durP2;ratioP2;P2;SDS_P1;SDS_P2;PMS_P1;PMS_P2;Temp;Humidity;BMP_temperature;BMP_pressure;BME280_temperature;BME280_humidity;BME280_pressure;Samples;Min_cycle;Max_cycle;Signal;HPM_P1;HPM_P2
2023/07/05 00:01:00;;;;;;;2.50;1.23;;;;;;;;;;5072954;28;20839;-51
2023/07/05 00:03:28;;;;;;;2.23;1.33;;;;;;;;;;5071792;28;20499;-52
2023/07/05 00:05:55;;;;;;;2.90;1.50;;;;;;;;;;5072216;28;20531;-50
2023/07/05 00:08:23;;;;;;;2.53;0.97;;;;;;;;;;5072507;28;20539;-51
2023/07/05 00:10:51;;;;;;;1.73;0.90;;;;;;;;;;5072264;28;20534;-51
2023/07/05 00:13:18;;;;;;;2.47;1.17;;;;;;;;;;5071642;28;20476;-51
2023/07/05 00:15:48;;;;;;;3.43;1.47;;;;;;;;;;5072242;28;20534;-50
2023/07/05 00:18:15;;;;;;;1.93;1.00;;;;;;;;;;5071409;28;20448;-50
2023/07/05 00:20:43;;;;;;;2.90;1.40;;;;;;;;;;5070828;28;20559;-50
2023/07/05 00:23:10;;;;;;;2.20;1.13;;;;;;;;;;5070486;28;21000;-51
2023/07/05 00:25:38;;;;;;;2.60;1.33;;;;;;;;;;5070815;28;20520;-48
2023/07/05 00:28:06;;;;;;;2.50;1.10;;;;;;;;;;5071072;28;20528;-48
2023/07/05 00:30:33;;;;;;;2.63;1.30;;;;;;;;;;5070839;28;20881;-48
2023/07/05 00:33:00;;;;;;;2.20;1.20;;;;;;;;;;5069985;28;20551;-49
2023/07/05 00:35:27;;;;;;;2.70;1.20;;;;;;;;;;5070204;28;20437;-48
2023/07/05 00:37:55;;;;;;;3.30;1.30;;;;;;;;;;5070814;28;20665;-49
2023/07/05 00:40:22;;;;;;;2.40;1.30;;;;;;;;;;5070511;28;20508;-48
2023/07/05 00:42:50;;;;;;;3.37;1.30;;;;;;;;;;5071736;28;20556;-48
2023/07/05 00:45:36;;;;;;;2.80;1.50;;;;;;;;;;5071663;28;20527;-48
2023/07/05 00:48:03;;;;;;;1.70;0.73;;;;;;;;;;5070834;28;20558;-49
2023/07/05 00:50:35;;;;;;;3.53;1.40;;;;;;;;;;5071363;28;20436;-48
2023/07/05 00:53:03;;;;;;;2.77;1.40;;;;;;;;;;5071281;28;20545;-48
2023/07/05 00:55:30;;;;;;;2.87;1.17;;;;;;;;;;5071447;28;20541;-48
2023/07/05 00:57:59;;;;;;;2.37;1.20;;;;;;;;;;5071012;28;20458;-49
2023/07/05 01:00:27;;;;;;;2.97;1.20;;;;;;;;;;5070800;28;20547;-48
2023/07/05 01:02:57;;;;;;;2.03;1.07;;;;;;;;;;5070931;28;21065;-48
2023/07/05 01:05:26;;;;;;;2.33;1.10;;;;;;;;;;5071274;28;20531;-49
2023/07/05 01:07:53;;;;;;;2.20;0.97;;;;;;;;;;5071552;28;20535;-48
2023/07/05 01:10:21;;;;;;;2.50;1.03;;;;;;;;;;5070743;28;20495;-48
2023/07/05 01:12:54;;;;;;;2.60;1.20;;;;;;;;;;5070242;28;20980;-48
2023/07/05 01:15:27;;;;;;;2.30;1.20;;;;;;;;;;5071066;28;21040;-48
2023/07/05 01:17:57;;;;;;;2.70;1.37;;;;;;;;;;5071207;28;20531;-48
2023/07/05 01:20:29;;;;;;;2.80;1.50;;;;;;;;;;5070117;28;20511;-48
2023/07/05 01:23:03;;;;;;;2.60;1.10;;;;;;;;;;5069944;28;20996;-48
2023/07/05 01:25:41;;;;;;;2.03;1.10;;;;;;;;;;5069665;28;20932;-48
2023/07/05 01:28:20;;;;;;;2.07;1.07;;;;;;;;;;5069481;28;20810;-48
2023/07/05 01:31:01;;;;;;;1.90;1.10;;;;;;;;;;5070012;28;20462;-49
2023/07/05 01:33:33;;;;;;;2.70;1.37;;;;;;;;;;5069908;28;20500;-48
2023/07/05 01:36:00;;;;;;;2.37;1.10;;;;;;;;;;5071074;28;20523;-49
2023/07/05 01:38:27;;;;;;;3.03;1.40;;;;;;;;;;5070585;28;20569;-49
2023/07/05 01:40:59;;;;;;;2.60;1.30;;;;;;;;;;5070255;28;20504;-50
2023/07/05 01:43:27;;;;;;;2.67;1.37;;;;;;;;;;5070499;28;20464;-49
2023/07/05 01:46:00;;;;;;;8.50;1.80;;;;;;;;;;5069480;28;20756;-47
2023/07/05 01:48:32;;;;;;;3.53;1.40;;;;;;;;;;5069201;28;20438;-49
2023/07/05 01:51:04;;;;;;;3.10;1.03;;;;;;;;;;5069736;28;20532;-52
2023/07/05 01:53:35;;;;;;;2.53;1.23;;;;;;;;;;5069657;28;20953;-51
2023/07/05 01:56:05;;;;;;;2.20;1.10;;;;;;;;;;5069428;28;20484;-50
2023/07/05 01:58:34;;;;;;;3.23;1.30;;;;;;;;;;5069845;28;20468;-51
2023/07/05 02:01:03;;;;;;;2.60;1.23;;;;;;;;;;5069959;28;21075;-51
2023/07/05 02:03:32;;;;;;;3.70;1.30;;;;;;;;;;5070054;28;20469;-52
2023/07/05 02:06:00;;;;;;;2.23;1.20;;;;;;;;;;5070455;28;20436;-51
2023/07/05 02:08:30;;;;;;;2.40;1.20;;;;;;;;;;5070315;28;20539;-51
2023/07/05 02:10:58;;;;;;;5.03;1.50;;;;;;;;;;5070557;28;20473;-51
2023/07/05 02:13:25;;;;;;;4.40;1.70;;;;;;;;;;5069559;28;20556;-50
2023/07/05 02:15:52;;;;;;;2.90;1.23;;;;;;;;;;5070498;28;20475;-51
2023/07/05 02:18:19;;;;;;;2.30;1.13;;;;;;;;;;5070326;28;20449;-51
2023/07/05 02:20:47;;;;;;;2.00;0.90;;;;;;;;;;5069161;28;20592;-52
2023/07/05 02:23:15;;;;;;;2.20;1.20;;;;;;;;;;5068669;28;20488;-52
2023/07/05 02:25:42;;;;;;;4.63;1.40;;;;;;;;;;5068696;28;20480;-52
2023/07/05 02:28:10;;;;;;;2.33;1.00;;;;;;;;;;5068930;28;20936;-51
2023/07/05 02:30:37;;;;;;;3.30;1.30;;;;;;;;;;5069114;28;20936;-50
2023/07/05 02:33:05;;;;;;;3.03;1.13;;;;;;;;;;5069152;28;20496;-50
2023/07/05 02:35:35;;;;;;;2.23;0.90;;;;;;;;;;5069906;28;20544;-51
2023/07/05 02:38:02;;;;;;;2.63;1.23;;;;;;;;;;5070289;28;20530;-51
2023/07/05 02:40:31;;;;;;;2.20;1.10;;;;;;;;;;5069595;28;20554;-50
2023/07/05 02:42:59;;;;;;;2.20;1.00;;;;;;;;;;5069829;28;20663;-52
2023/07/05 02:45:27;;;;;;;1.90;0.80;;;;;;;;;;5069941;28;20593;-51
2023/07/05 02:47:54;;;;;;;2.50;1.30;;;;;;;;;;5069311;28;20440;-50
2023/07/05 02:50:21;;;;;;;2.83;1.23;;;;;;;;;;5069532;28;20879;-50
2023/07/05 02:52:49;;;;;;;3.40;1.47;;;;;;;;;;5069652;28;20464;-51
2023/07/05 02:55:16;;;;;;;2.77;1.20;;;;;;;;;;5069842;28;20513;-50
2023/07/05 02:57:45;;;;;;;2.10;0.93;;;;;;;;;;5069747;28;20859;-51
2023/07/05 03:00:13;;;;;;;3.63;1.33;;;;;;;;;;5072796;28;20870;-51
2023/07/05 03:02:40;;;;;;;2.67;1.17;;;;;;;;;;5072779;28;20544;-53
2023/07/05 03:05:08;;;;;;;2.43;1.13;;;;;;;;;;5073656;28;20440;-52
2023/07/05 03:07:35;;;;;;;2.40;1.20;;;;;;;;;;5073682;28;20469;-52
2023/07/05 03:10:02;;;;;;;2.30;1.20;;;;;;;;;;5073262;28;20455;-52
2023/07/05 03:12:29;;;;;;;3.30;1.43;;;;;;;;;;5072984;28;20533;-53
2023/07/05 03:14:58;;;;;;;2.80;1.10;;;;;;;;;;5073424;28;20515;-53
2023/07/05 03:17:25;;;;;;;4.23;1.00;;;;;;;;;;5072762;28;20986;-53
2023/07/05 03:19:56;;;;;;;2.10;1.00;;;;;;;;;;5071891;28;20475;-51
2023/07/05 03:22:23;;;;;;;2.40;1.10;;;;;;;;;;5071699;28;20479;-51
2023/07/05 03:24:51;;;;;;;2.10;1.10;;;;;;;;;;5072334;28;20520;-50
2023/07/05 03:27:19;;;;;;;4.97;1.40;;;;;;;;;;5071408;28;20444;-51
2023/07/05 03:29:46;;;;;;;2.17;1.13;;;;;;;;;;5072218;28;20524;-51
2023/07/05 03:32:15;;;;;;;2.57;1.57;;;;;;;;;;5071813;28;20564;-51
2023/07/05 03:34:42;;;;;;;2.63;1.10;;;;;;;;;;5072533;28;20524;-52
2023/07/05 03:37:09;;;;;;;2.30;1.30;;;;;;;;;;5073298;28;20480;-51
2023/07/05 03:39:36;;;;;;;2.83;1.20;;;;;;;;;;5071881;28;20977;-51
2023/07/05 03:42:04;;;;;;;3.53;1.30;;;;;;;;;;5070744;28;20560;-52
2023/07/05 03:44:31;;;;;;;2.43;1.13;;;;;;;;;;5071605;28;20532;-50
2023/07/05 03:46:58;;;;;;;2.67;1.63;;;;;;;;;;5071148;28;20441;-51
2023/07/05 03:49:27;;;;;;;3.60;1.47;;;;;;;;;;5071649;28;20436;-52
2023/07/05 03:51:54;;;;;;;2.10;0.80;;;;;;;;;;5071269;28;20488;-51
2023/07/05 03:54:24;;;;;;;2.40;1.20;;;;;;;;;;5072270;28;21006;-51
2023/07/05 03:56:52;;;;;;;2.63;1.30;;;;;;;;;;5071748;28;20440;-51
2023/07/05 03:59:19;;;;;;;2.50;1.20;;;;;;;;;;5071415;28;20471;-52
2023/07/05 04:01:46;;;;;;;2.20;1.10;;;;;;;;;;5070575;28;20553;-51
2023/07/05 04:04:13;;;;;;;3.10;1.80;;;;;;;;;;5071560;28;20472;-51
2023/07/05 04:06:42;;;;;;;2.17;1.10;;;;;;;;;;5071350;28;20475;-52
2023/07/05 04:09:09;;;;;;;2.83;1.10;;;;;;;;;;5071156;28;20535;-52
2023/07/05 04:11:36;;;;;;;2.37;1.40;;;;;;;;;;5070636;28;20502;-51
2023/07/05 04:14:03;;;;;;;3.20;1.23;;;;;;;;;;5072238;28;20491;-50
2023/07/05 04:16:31;;;;;;;2.10;1.23;;;;;;;;;;5071906;28;20530;-51
2023/07/05 04:18:58;;;;;;;2.80;1.17;;;;;;;;;;5071634;28;20527;-51
2023/07/05 04:21:26;;;;;;;2.50;1.10;;;;;;;;;;5070675;28;20473;-50
2023/07/05 04:23:55;;;;;;;4.37;1.33;;;;;;;;;;5071289;28;20460;-51
2023/07/05 04:26:23;;;;;;;2.90;1.33;;;;;;;;;;5070094;28;20502;-51
2023/07/05 04:28:50;;;;;;;2.43;1.70;;;;;;;;;;5071212;28;20535;-50
2023/07/05 04:31:18;;;;;;;2.20;0.90;;;;;;;;;;5070753;28;20520;-51
2023/07/05 04:33:45;;;;;;;2.67;1.27;;;;;;;;;;5070156;28;20548;-52
2023/07/05 04:36:12;;;;;;;2.57;1.17;;;;;;;;;;5070067;28;20499;-52
2023/07/05 04:38:40;;;;;;;2.20;1.17;;;;;;;;;;5070628;28;20460;-51
2023/07/05 04:41:08;;;;;;;2.30;1.17;;;;;;;;;;5070395;28;20472;-51
2023/07/05 04:43:35;;;;;;;3.07;1.17;;;;;;;;;;5070550;28;20758;-51
2023/07/05 04:46:03;;;;;;;2.10;1.10;;;;;;;;;;5070931;28;20487;-52
2023/07/05 04:48:31;;;;;;;2.17;1.10;;;;;;;;;;5071293;28;20531;-52
2023/07/05 04:50:59;;;;;;;2.07;1.10;;;;;;;;;;5063066;28;20528;-51
2023/07/05 04:53:27;;;;;;;2.67;1.13;;;;;;;;;;5060980;28;20548;-52
2023/07/05 04:55:55;;;;;;;4.00;0.90;;;;;;;;;;5047576;28;20532;-53
2023/07/05 04:58:24;;;;;;;2.13;1.53;;;;;;;;;;5047561;28;20474;-52
2023/07/05 05:00:52;;;;;;;2.37;0.87;;;;;;;;;;5039869;28;20512;-51
2023/07/05 05:03:20;;;;;;;3.33;1.30;;;;;;;;;;5042426;28;20525;-51
2023/07/05 05:05:48;;;;;;;2.90;1.50;;;;;;;;;;5036276;28;20476;-51
2023/07/05 05:08:15;;;;;;;2.20;1.00;;;;;;;;;;5041944;28;20954;-51
2023/07/05 05:10:42;;;;;;;3.07;1.50;;;;;;;;;;5032505;28;20504;-51
2023/07/05 05:13:10;;;;;;;5.07;1.20;;;;;;;;;;5033248;28;20969;-51
2023/07/05 05:15:39;;;;;;;2.47;1.50;;;;;;;;;;5040547;28;20462;-52
2023/07/05 05:18:07;;;;;;;3.40;1.30;;;;;;;;;;5039520;28;20438;-52
2023/07/05 05:20:34;;;;;;;4.13;1.33;;;;;;;;;;5039384;28;20441;-52
2023/07/05 05:23:01;;;;;;;2.00;1.03;;;;;;;;;;5039836;28;20501;-53
2023/07/05 05:25:29;;;;;;;2.23;1.07;;;;;;;;;;5040306;28;20524;-50
2023/07/05 05:27:56;;;;;;;3.03;1.47;;;;;;;;;;5044420;28;20529;-50
2023/07/05 05:30:23;;;;;;;3.60;1.60;;;;;;;;;;5050694;28;20473;-52
2023/07/05 05:32:52;;;;;;;2.97;1.10;;;;;;;;;;5050863;28;20500;-50
2023/07/05 05:35:20;;;;;;;2.47;1.10;;;;;;;;;;5050648;28;20842;-50
2023/07/05 05:37:47;;;;;;;3.20;1.40;;;;;;;;;;5050709;28;20937;-51
2023/07/05 05:40:15;;;;;;;2.50;1.27;;;;;;;;;;5050706;28;21015;-50
2023/07/05 05:42:42;;;;;;;2.53;1.20;;;;;;;;;;5044266;28;20569;-50
2023/07/05 05:45:09;;;;;;;2.40;1.37;;;;;;;;;;5050906;28;20503;-51
2023/07/05 05:47:37;;;;;;;5.50;1.70;;;;;;;;;;5050182;28;20465;-50
2023/07/05 05:50:06;;;;;;;2.97;1.30;;;;;;;;;;5050700;28;20480;-51
2023/07/05 05:52:33;;;;;;;2.67;1.20;;;;;;;;;;5049016;28;20464;-52
2023/07/05 05:55:00;;;;;;;2.67;1.40;;;;;;;;;;5049641;28;20481;-51
2023/07/05 05:57:27;;;;;;;2.40;1.20;;;;;;;;;;5048431;28;20557;-51
2023/07/05 05:59:55;;;;;;;3.40;1.53;;;;;;;;;;5049565;28;20536;-53
2023/07/05 06:02:22;;;;;;;3.47;1.37;;;;;;;;;;5049577;28;20509;-52
2023/07/05 06:04:49;;;;;;;2.77;1.23;;;;;;;;;;5048894;28;20525;-52
2023/07/05 06:07:18;;;;;;;3.43;1.83;;;;;;;;;;5049707;28;20965;-52
2023/07/05 06:09:45;;;;;;;2.53;1.70;;;;;;;;;;5049061;28;20537;-52
2023/07/05 06:12:13;;;;;;;3.63;1.63;;;;;;;;;;5049000;28;20560;-52
2023/07/05 06:14:40;;;;;;;3.27;1.27;;;;;;;;;;5049292;28;20449;-50
2023/07/05 06:17:08;;;;;;;2.30;1.30;;;;;;;;;;5049613;28;20438;-52
2023/07/05 06:19:35;;;;;;;2.77;1.33;;;;;;;;;;5049480;28;20442;-53
2023/07/05 06:22:02;;;;;;;2.30;1.33;;;;;;;;;;5049344;28;20928;-51
2023/07/05 06:24:31;;;;;;;2.20;1.30;;;;;;;;;;5050231;28;20874;-53
2023/07/05 06:26:59;;;;;;;2.67;1.43;;;;;;;;;;5050407;28;20477;-53
2023/07/05 06:29:26;;;;;;;2.43;1.40;;;;;;;;;;5050306;28;20968;-53
2023/07/05 06:31:53;;;;;;;2.90;1.33;;;;;;;;;;5050316;28;20461;-51
2023/07/05 06:34:20;;;;;;;3.50;1.60;;;;;;;;;;5051727;28;20532;-52
2023/07/05 06:36:48;;;;;;;2.67;1.50;;;;;;;;;;5054305;28;20476;-52
2023/07/05 06:39:15;;;;;;;2.20;1.00;;;;;;;;;;5054218;28;20873;-52
2023/07/05 06:41:44;;;;;;;2.90;1.60;;;;;;;;;;5053620;28;20513;-52
2023/07/05 06:44:11;;;;;;;4.30;2.43;;;;;;;;;;5054384;28;20480;-51
2023/07/05 06:46:38;;;;;;;2.50;1.60;;;;;;;;;;5053239;28;20524;-53
2023/07/05 06:49:06;;;;;;;5.73;1.60;;;;;;;;;;5054437;28;20528;-52
2023/07/05 06:51:33;;;;;;;2.90;1.37;;;;;;;;;;5053758;28;20538;-50
2023/07/05 06:54:00;;;;;;;2.23;1.33;;;;;;;;;;5053769;28;20473;-52
2023/07/05 06:56:27;;;;;;;3.13;1.60;;;;;;;;;;5053564;28;20480;-52
2023/07/05 06:58:56;;;;;;;3.20;1.60;;;;;;;;;;5053932;28;20477;-51
2023/07/05 07:01:23;;;;;;;2.70;1.50;;;;;;;;;;5053450;28;20485;-53
2023/07/05 07:03:50;;;;;;;3.83;1.40;;;;;;;;;;5053632;28;20568;-48
2023/07/05 07:06:18;;;;;;;5.13;1.80;;;;;;;;;;5052907;28;20446;-50
2023/07/05 07:08:45;;;;;;;4.70;1.80;;;;;;;;;;5053522;28;21010;-48
2023/07/05 07:11:13;;;;;;;5.27;1.70;;;;;;;;;;5053531;28;20514;-50
2023/07/05 07:13:40;;;;;;;5.00;2.30;;;;;;;;;;5053585;28;20983;-50
2023/07/05 07:16:10;;;;;;;9.43;2.80;;;;;;;;;;5053267;28;20536;-49
2023/07/05 07:18:37;;;;;;;4.97;1.87;;;;;;;;;;5053428;28;20541;-49
2023/07/05 07:21:05;;;;;;;4.87;1.70;;;;;;;;;;5053344;28;20449;-50
2023/07/05 07:23:32;;;;;;;8.20;1.90;;;;;;;;;;5052864;28;20571;-51
2023/07/05 07:26:00;;;;;;;3.60;1.50;;;;;;;;;;5053392;28;20476;-49
2023/07/05 07:28:27;;;;;;;3.60;1.67;;;;;;;;;;5053192;28;21019;-49
2023/07/05 07:30:54;;;;;;;6.10;1.93;;;;;;;;;;5053140;28;20524;-51
2023/07/05 07:33:23;;;;;;;7.33;2.00;;;;;;;;;;5053060;28;20545;-49
2023/07/05 07:35:50;;;;;;;6.03;1.70;;;;;;;;;;5053295;28;20476;-51
2023/07/05 07:38:18;;;;;;;3.33;1.53;;;;;;;;;;5053149;28;20884;-51
2023/07/05 07:40:45;;;;;;;2.57;1.53;;;;;;;;;;5053046;28;20472;-51
2023/07/05 07:43:13;;;;;;;2.60;1.47;;;;;;;;;;5052690;28;20505;-51
2023/07/05 07:45:40;;;;;;;3.23;1.80;;;;;;;;;;5051766;28;20842;-49
2023/07/05 07:48:07;;;;;;;3.10;1.47;;;;;;;;;;5052124;28;20488;-50
2023/07/05 07:50:36;;;;;;;2.80;1.73;;;;;;;;;;5053203;28;20499;-50
2023/07/05 07:53:03;;;;;;;4.10;1.90;;;;;;;;;;5052634;28;20519;-52
2023/07/05 07:55:31;;;;;;;3.20;1.50;;;;;;;;;;5052814;28;20483;-50
2023/07/05 07:57:58;;;;;;;2.83;1.33;;;;;;;;;;5052642;28;20452;-52
2023/07/05 08:00:27;;;;;;;5.00;1.90;;;;;;;;;;5052583;28;20539;-51
2023/07/05 08:02:54;;;;;;;2.40;1.30;;;;;;;;;;5052170;28;20485;-50
2023/07/05 08:05:23;;;;;;;3.23;1.43;;;;;;;;;;5051885;28;20500;-51
2023/07/05 08:07:52;;;;;;;2.13;1.47;;;;;;;;;;5052544;28;20472;-51
2023/07/05 08:10:20;;;;;;;2.23;1.10;;;;;;;;;;5052458;28;20512;-51
2023/07/05 08:12:47;;;;;;;3.13;1.63;;;;;;;;;;5051786;28;20478;-50
2023/07/05 08:15:14;;;;;;;2.70;1.20;;;;;;;;;;5052409;28;20465;-50
2023/07/05 08:17:41;;;;;;;2.93;1.50;;;;;;;;;;5052398;28;20504;-50
2023/07/05 08:20:09;;;;;;;3.10;1.67;;;;;;;;;;5052277;28;20441;-50
2023/07/05 08:22:36;;;;;;;3.27;1.30;;;;;;;;;;5051996;28;20508;-49
2023/07/05 08:25:05;;;;;;;2.90;1.30;;;;;;;;;;5052190;28;20477;-49
2023/07/05 08:27:33;;;;;;;2.73;1.30;;;;;;;;;;5052120;28;20480;-50
2023/07/05 08:30:00;;;;;;;2.30;1.20;;;;;;;;;;5052527;28;20525;-50
2023/07/05 08:32:27;;;;;;;2.73;1.40;;;;;;;;;;5051864;28;20552;-49
2023/07/05 08:34:54;;;;;;;3.23;1.83;;;;;;;;;;5052103;28;20536;-50
2023/07/05 08:37:22;;;;;;;3.33;1.70;;;;;;;;;;5051910;28;20592;-50
2023/07/05 08:39:49;;;;;;;2.97;1.53;;;;;;;;;;5051923;28;20442;-49
2023/07/05 08:42:28;;;;;;;2.45;1.25;;;;;;;;;;5051365;28;20520;-50
2023/07/05 08:44:59;;;;;;;2.77;1.30;;;;;;;;;;5052059;28;20195;-50
2023/07/05 08:47:30;;;;;;;2.87;1.10;;;;;;;;;;5051288;28;20445;-48
2023/07/05 08:50:03;;;;;;;8.23;2.30;;;;;;;;;;5051679;28;20445;-48
2023/07/05 08:52:33;;;;;;;4.93;1.93;;;;;;;;;;5051111;28;20519;-48
2023/07/05 08:55:02;;;;;;;5.83;1.70;;;;;;;;;;5051723;28;20442;-48
2023/07/05 08:57:33;;;;;;;6.07;1.90;;;;;;;;;;5051365;28;20487;-47
2023/07/05 09:00:06;;;;;;;5.33;1.90;;;;;;;;;;5033013;28;20442;-47
2023/07/05 09:02:34;;;;;;;8.60;2.10;;;;;;;;;;5031196;28;20482;-48
2023/07/05 09:05:01;;;;;;;7.23;1.90;;;;;;;;;;5030948;28;20533;-47
2023/07/05 09:07:35;;;;;;;4.50;1.50;;;;;;;;;;5031588;28;20512;-49
2023/07/05 09:10:05;;;;;;;3.10;2.03;;;;;;;;;;5031260;28;20942;-49
2023/07/05 09:12:37;;;;;;;2.43;1.33;;;;;;;;;;5030658;28;20857;-48
2023/07/05 09:15:16;;;;;;;3.30;1.67;;;;;;;;;;5031451;28;20450;-49
2023/07/05 09:17:52;;;;;;;2.77;1.40;;;;;;;;;;5031255;28;20446;-48
2023/07/05 09:20:30;;;;;;;2.80;1.20;;;;;;;;;;5031036;28;20533;-50
2023/07/05 09:22:57;;;;;;;3.20;1.73;;;;;;;;;;5030882;28;20584;-48
2023/07/05 09:25:25;;;;;;;5.17;1.70;;;;;;;;;;5031581;28;20496;-48
2023/07/05 09:27:58;;;;;;;5.67;2.87;;;;;;;;;;5030922;28;20478;-51
2023/07/05 09:30:26;;;;;;;5.87;2.00;;;;;;;;;;5030930;28;20528;-49
2023/07/05 09:32:59;;;;;;;2.80;1.67;;;;;;;;;;5030463;28;20504;-48
2023/07/05 09:35:27;;;;;;;3.03;1.50;;;;;;;;;;5030935;28;20442;-50
2023/07/05 09:38:00;;;;;;;10.27;2.33;;;;;;;;;;5030767;28;20521;-48
2023/07/05 09:40:27;;;;;;;10.00;3.20;;;;;;;;;;5031169;28;20477;-49
2023/07/05 09:42:57;;;;;;;5.73;2.20;;;;;;;;;;5030493;28;20565;-50
2023/07/05 09:45:25;;;;;;;5.50;2.00;;;;;;;;;;5030648;28;20477;-51
2023/07/05 09:47:58;;;;;;;10.17;2.83;;;;;;;;;;5030403;28;20507;-49
2023/07/05 09:50:25;;;;;;;5.53;2.30;;;;;;;;;;5030670;28;20529;-49
2023/07/05 09:52:55;;;;;;;2.60;1.53;;;;;;;;;;5030551;28;20494;-48
2023/07/05 09:55:22;;;;;;;5.00;2.13;;;;;;;;;;5030663;28;20442;-49
2023/07/05 09:57:50;;;;;;;3.97;1.90;;;;;;;;;;5030930;28;20476;-50
2023/07/05 10:00:29;;;;;;;3.57;1.60;;;;;;;;;;5030474;28;20538;-49
2023/07/05 10:02:59;;;;;;;3.30;2.00;;;;;;;;;;5030127;28;20478;-49
2023/07/05 10:05:27;;;;;;;3.73;1.73;;;;;;;;;;5030638;28;20446;-50
2023/07/05 10:07:56;;;;;;;3.37;1.60;;;;;;;;;;5030201;28;20533;-48
2023/07/05 10:10:26;;;;;;;4.13;2.10;;;;;;;;;;5029852;28;20545;-49
2023/07/05 10:13:00;;;;;;;2.73;1.57;;;;;;;;;;5029702;28;20493;-49
2023/07/05 10:15:29;;;;;;;6.07;2.13;;;;;;;;;;5030315;28;20450;-50
2023/07/05 10:17:57;;;;;;;4.07;1.87;;;;;;;;;;5030799;28;21023;-49
2023/07/05 10:20:26;;;;;;;2.67;1.77;;;;;;;;;;5030541;28;20811;-49
2023/07/05 10:23:01;;;;;;;3.20;1.90;;;;;;;;;;5030140;28;20572;-49
2023/07/05 10:25:33;;;;;;;2.80;1.60;;;;;;;;;;5030361;28;20454;-48
2023/07/05 10:28:02;;;;;;;3.27;1.70;;;;;;;;;;5030150;28;20446;-49
2023/07/05 10:30:30;;;;;;;2.93;1.67;;;;;;;;;;5029411;28;20438;-50
2023/07/05 10:33:11;;;;;;;5.13;2.10;;;;;;;;;;5028807;28;20551;-48
2023/07/05 10:35:46;;;;;;;4.47;2.03;;;;;;;;;;5040076;28;20470;-48
2023/07/05 10:38:20;;;;;;;3.23;1.73;;;;;;;;;;5039473;28;20474;-49
2023/07/05 10:40:49;;;;;;;4.10;2.10;;;;;;;;;;5038510;28;20442;-48
2023/07/05 10:43:17;;;;;;;3.53;1.90;;;;;;;;;;5037595;28;21039;-48
2023/07/05 10:45:45;;;;;;;3.50;2.00;;;;;;;;;;5037870;28;20451;-48
2023/07/05 10:48:23;;;;;;;3.80;1.70;;;;;;;;;;5036294;28;20524;-50
2023/07/05 10:50:51;;;;;;;2.83;2.50;;;;;;;;;;5030103;28;20478;-49
2023/07/05 10:53:21;;;;;;;2.83;1.60;;;;;;;;;;5029301;28;21041;-49
2023/07/05 10:55:51;;;;;;;3.40;2.10;;;;;;;;;;5028512;28;20910;-48
2023/07/05 10:58:20;;;;;;;6.57;1.70;;;;;;;;;;5029212;28;20545;-49
2023/07/05 11:00:51;;;;;;;3.10;2.30;;;;;;;;;;5028581;28;20567;-49
2023/07/05 11:03:21;;;;;;;3.20;2.13;;;;;;;;;;5029131;28;20482;-50
2023/07/05 11:05:49;;;;;;;3.37;1.80;;;;;;;;;;5030161;28;20450;-49
2023/07/05 11:08:19;;;;;;;3.93;2.33;;;;;;;;;;5029205;28;20937;-48
2023/07/05 11:10:47;;;;;;;4.10;2.20;;;;;;;;;;5028993;28;20552;-49
2023/07/05 11:13:15;;;;;;;3.23;1.90;;;;;;;;;;5028329;28;20458;-49
2023/07/05 11:15:42;;;;;;;4.90;2.27;;;;;;;;;;5028723;28;20537;-49
2023/07/05 11:18:13;;;;;;;4.93;2.70;;;;;;;;;;5029288;28;20477;-48
2023/07/05 11:20:53;;;;;;;3.50;2.03;;;;;;;;;;5030919;28;20442;-47
2023/07/05 11:23:39;;;;;;;3.77;2.03;;;;;;;;;;5032388;28;20568;-49
2023/07/05 11:26:06;;;;;;;5.43;2.23;;;;;;;;;;5033551;28;20529;-48
2023/07/05 11:28:34;;;;;;;3.70;2.23;;;;;;;;;;5032791;28;20529;-48
2023/07/05 11:31:02;;;;;;;3.30;1.93;;;;;;;;;;5033073;28;20472;-49
2023/07/05 11:33:29;;;;;;;3.10;1.90;;;;;;;;;;5033053;28;20466;-49
2023/07/05 11:35:59;;;;;;;2.90;1.93;;;;;;;;;;5033152;28;20533;-49
2023/07/05 11:38:44;;;;;;;4.20;2.37;;;;;;;;;;5033035;28;20530;-50
2023/07/05 11:41:26;;;;;;;3.17;1.93;;;;;;;;;;5032999;28;20450;-49
2023/07/05 11:43:56;;;;;;;4.03;2.20;;;;;;;;;;5032816;28;20482;-50
2023/07/05 11:46:37;;;;;;;3.00;1.93;;;;;;;;;;5032499;28;20454;-49
2023/07/05 11:49:23;;;;;;;3.13;1.97;;;;;;;;;;5033128;28;20442;-50
2023/07/05 11:51:55;;;;;;;3.10;1.90;;;;;;;;;;5032901;28;20491;-50
2023/07/05 11:54:23;;;;;;;3.77;2.20;;;;;;;;;;5032873;28;20449;-49
2023/07/05 11:56:52;;;;;;;3.43;1.90;;;;;;;;;;5033200;28;20447;-50
2023/07/05 11:59:20;;;;;;;3.37;2.17;;;;;;;;;;5032831;28;20819;-48
2023/07/05 12:01:48;;;;;;;3.37;1.90;;;;;;;;;;5032665;28;20549;-50
2023/07/05 12:04:23;;;;;;;3.70;2.37;;;;;;;;;;5032027;28;20583;-50
2023/07/05 12:06:51;;;;;;;3.57;2.10;;;;;;;;;;5032969;28;20469;-50
2023/07/05 12:09:29;;;;;;;3.37;2.10;;;;;;;;;;5032575;28;20442;-50
2023/07/05 12:11:57;;;;;;;2.90;2.03;;;;;;;;;;5032174;28;20466;-50
2023/07/05 12:14:24;;;;;;;2.50;1.70;;;;;;;;;;5032409;28;20492;-49
2023/07/05 12:16:52;;;;;;;3.90;1.90;;;;;;;;;;5032772;28;20768;-51
2023/07/05 12:19:22;;;;;;;3.23;2.07;;;;;;;;;;5032468;28;20448;-51
2023/07/05 12:21:52;;;;;;;4.20;2.33;;;;;;;;;;5032687;28;20474;-50
2023/07/05 12:24:21;;;;;;;2.60;1.60;;;;;;;;;;5032512;28;20470;-50
2023/07/05 12:26:48;;;;;;;3.60;2.40;;;;;;;;;;5032968;28;20532;-49
2023/07/05 12:29:20;;;;;;;4.30;2.00;;;;;;;;;;5032939;28;20533;-50
2023/07/05 12:31:47;;;;;;;4.07;2.40;;;;;;;;;;5031710;28;20482;-50
2023/07/05 12:34:20;;;;;;;4.40;2.40;;;;;;;;;;5032740;28;20474;-49
2023/07/05 12:36:47;;;;;;;4.20;2.10;;;;;;;;;;5032580;28;20443;-49
2023/07/05 12:39:16;;;;;;;4.10;1.90;;;;;;;;;;5032912;28;20447;-50
2023/07/05 12:41:44;;;;;;;3.97;2.17;;;;;;;;;;5032363;28;20485;-49
2023/07/05 12:44:14;;;;;;;4.23;2.23;;;;;;;;;;5032710;28;20561;-50
2023/07/05 12:46:42;;;;;;;4.27;2.13;;;;;;;;;;5031995;28;20451;-49
2023/07/05 12:49:12;;;;;;;4.77;2.23;;;;;;;;;;5032475;28;20934;-50
2023/07/05 12:51:48;;;;;;;3.07;1.60;;;;;;;;;;5032194;28;20442;-49
2023/07/05 12:54:15;;;;;;;4.20;1.93;;;;;;;;;;5032105;28;20438;-50
2023/07/05 12:56:45;;;;;;;4.27;1.80;;;;;;;;;;5032618;28;20533;-51
2023/07/05 12:59:27;;;;;;;4.60;1.83;;;;;;;;;;5032221;28;20442;-48
2023/07/05 13:01:55;;;;;;;3.20;2.00;;;;;;;;;;5032041;28;20466;-49
2023/07/05 13:04:22;;;;;;;4.43;1.57;;;;;;;;;;5031568;28;20517;-50
2023/07/05 13:06:50;;;;;;;3.43;1.87;;;;;;;;;;5032210;28;20994;-49
2023/07/05 13:09:25;;;;;;;3.03;2.10;;;;;;;;;;5032026;28;20442;-50
2023/07/05 13:11:59;;;;;;;3.90;1.20;;;;;;;;;;5031515;28;20470;-49
2023/07/05 13:14:29;;;;;;;3.53;1.57;;;;;;;;;;5031968;28;21048;-48
2023/07/05 13:16:57;;;;;;;3.17;0.97;;;;;;;;;;5032319;28;20525;-49
2023/07/05 13:19:34;;;;;;;12.30;2.10;;;;;;;;;;5031921;28;20449;-48
2023/07/05 13:22:14;;;;;;;3.03;0.90;;;;;;;;;;5031380;28;20465;-47
2023/07/05 13:24:46;;;;;;;2.20;1.07;;;;;;;;;;5031793;28;20565;-48
2023/07/05 13:27:16;;;;;;;2.97;1.17;;;;;;;;;;5032025;28;20883;-48
2023/07/05 13:29:45;;;;;;;2.10;0.87;;;;;;;;;;5031918;28;20953;-51
2023/07/05 13:32:22;;;;;;;1.80;0.70;;;;;;;;;;5031496;28;20467;-52
2023/07/05 13:34:50;;;;;;;2.00;0.70;;;;;;;;;;5031869;28;20443;-51
2023/07/05 13:37:20;;;;;;;3.70;1.73;;;;;;;;;;5031694;28;20957;-50
2023/07/05 13:39:47;;;;;;;2.20;0.67;;;;;;;;;;5031994;28;20509;-51
2023/07/05 13:42:14;;;;;;;2.87;0.70;;;;;;;;;;5031604;28;20851;-52
2023/07/05 13:44:44;;;;;;;3.00;0.90;;;;;;;;;;5030394;28;21005;-51
2023/07/05 13:47:12;;;;;;;3.10;0.70;;;;;;;;;;5031065;28;20453;-53
2023/07/05 13:49:40;;;;;;;2.30;1.00;;;;;;;;;;5031399;28;20481;-50
2023/07/05 13:52:08;;;;;;;1.70;0.50;;;;;;;;;;5030919;28;20477;-47
2023/07/05 13:54:36;;;;;;;2.33;0.60;;;;;;;;;;5031602;28;20439;-49
2023/07/05 13:57:04;;;;;;;2.00;0.70;;;;;;;;;;5031350;28;20446;-48
2023/07/05 13:59:31;;;;;;;2.50;0.70;;;;;;;;;;5031798;28;20442;-49
2023/07/05 14:01:58;;;;;;;2.47;0.83;;;;;;;;;;5031182;28;20512;-50
2023/07/05 14:04:27;;;;;;;2.30;1.10;;;;;;;;;;5030732;28;21069;-49
2023/07/05 14:06:54;;;;;;;2.20;0.80;;;;;;;;;;5031398;28;20548;-49
2023/07/05 14:09:21;;;;;;;2.40;1.10;;;;;;;;;;5031293;28;20538;-51
2023/07/05 14:11:48;;;;;;;2.00;0.70;;;;;;;;;;5030860;28;20521;-51
2023/07/05 14:14:16;;;;;;;2.63;0.90;;;;;;;;;;5031637;28;20454;-52
2023/07/05 14:16:43;;;;;;;32.07;1.73;;;;;;;;;;5031360;28;20525;-51
2023/07/05 14:19:10;;;;;;;2.40;0.90;;;;;;;;;;5031832;28;20442;-51
2023/07/05 14:21:39;;;;;;;2.80;1.00;;;;;;;;;;5030729;28;20442;-51
2023/07/05 14:24:08;;;;;;;1.70;0.63;;;;;;;;;;5030637;28;20510;-52
2023/07/05 14:26:36;;;;;;;3.70;0.97;;;;;;;;;;5031054;28;20450;-53
2023/07/05 14:29:04;;;;;;;3.70;0.73;;;;;;;;;;5031011;28;20473;-52
2023/07/05 14:31:33;;;;;;;2.50;1.07;;;;;;;;;;5031163;28;20447;-49
2023/07/05 14:34:01;;;;;;;4.10;1.40;;;;;;;;;;5031792;28;20998;-50
2023/07/05 14:36:28;;;;;;;3.00;1.10;;;;;;;;;;5030002;28;20540;-50
2023/07/05 14:38:56;;;;;;;3.20;1.30;;;;;;;;;;5030799;28;20950;-50
2023/07/05 14:41:25;;;;;;;2.60;1.30;;;;;;;;;;5030600;28;20896;-49
2023/07/05 14:43:52;;;;;;;1.80;0.73;;;;;;;;;;5030820;28;20466;-50
2023/07/05 14:46:20;;;;;;;2.23;0.97;;;;;;;;;;5030104;28;20482;-50
2023/07/05 14:48:47;;;;;;;3.87;1.23;;;;;;;;;;5030418;28;20533;-50
2023/07/05 14:51:16;;;;;;;4.90;0.90;;;;;;;;;;5029011;28;20442;-47
2023/07/05 14:53:44;;;;;;;3.50;1.80;;;;;;;;;;5029067;28;20854;-49